sensor_id;sensor_type;location;lat;lon;timestamp;pressure;altitude;pressure_sealevel;temperature;humidity
26112;BME280;13829;48.990;8.346;2024-02-23T00:00:59;98445.34;;;8.74;90.55
26112;BME280;13829;48.990;8.346;2024-02-23T00:03:26;98452.28;;;8.77;90.32
26112;BME280;13829;48.990;8.346;2024-02-23T00:05:53;98447.94;;;8.76;90.99
26112;BME280;13829;48.990;8.346;2024-02-23T00:08:21;98463.00;;;8.64;89.73
26112;BME280;13829;48.990;8.346;2024-02-23T00:10:48;98462.16;;;8.64;87.86
26112;BME280;13829;48.990;8.346;2024-02-23T00:13:15;98465.41;;;8.77;87.99
26112;BME280;13829;48.990;8.346;2024-02-23T00:15:42;98464.66;;;8.69;87.40
26112;BME280;13829;48.990;8.346;2024-02-23T00:18:10;98473.53;;;8.63;88.61
26112;BME280;13829;48.990;8.346;2024-02-23T00:20:38;98473.59;;;8.58;87.96
26112;BME280;13829;48.990;8.346;2024-02-23T00:23:05;98483.44;;;8.44;89.36
26112;BME280;13829;48.990;8.346;2024-02-23T00:25:33;98487.81;;;8.42;89.02
26112;BME280;13829;48.990;8.346;2024-02-23T00:28:00;98496.47;;;8.48;87.81
26112;BME280;13829;48.990;8.346;2024-02-23T00:30:27;98506.13;;;8.45;88.79
26112;BME280;13829;48.990;8.346;2024-02-23T00:32:54;98504.34;;;8.47;88.56
26112;BME280;13829;48.990;8.346;2024-02-23T00:35:21;98502.44;;;8.57;88.11
26112;BME280;13829;48.990;8.346;2024-02-23T00:37:48;98491.06;;;8.58;89.10
26112;BME280;13829;48.990;8.346;2024-02-23T00:40:15;98491.25;;;8.45;89.21
26112;BME280;13829;48.990;8.346;2024-02-23T00:42:43;98491.25;;;8.45;87.80
26112;BME280;13829;48.990;8.346;2024-02-23T00:45:10;98495.66;;;8.45;87.47
26112;BME280;13829;48.990;8.346;2024-02-23T00:47:37;98500.78;;;8.51;87.53
26112;BME280;13829;48.990;8.346;2024-02-23T00:50:05;98512.16;;;8.52;86.79
26112;BME280;13829;48.990;8.346;2024-02-23T00:52:32;98520.84;;;8.52;84.97
26112;BME280;13829;48.990;8.346;2024-02-23T00:55:00;98530.63;;;8.41;86.84
26112;BME280;13829;48.990;8.346;2024-02-23T00:57:27;98531.56;;;8.37;87.04
26112;BME280;13829;48.990;8.346;2024-02-23T00:59:56;98528.84;;;8.43;86.60
26112;BME280;13829;48.990;8.346;2024-02-23T01:02:23;98534.25;;;8.33;86.41
26112;BME280;13829;48.990;8.346;2024-02-23T01:04:50;98530.00;;;8.23;87.00
26112;BME280;13829;48.990;8.346;2024-02-23T01:07:22;98533.56;;;8.19;87.18
26112;BME280;13829;48.990;8.346;2024-02-23T01:09:49;98534.38;;;8.24;87.38
26112;BME280;13829;48.990;8.346;2024-02-23T01:12:16;98536.16;;;8.22;87.33
26112;BME280;13829;48.990;8.346;2024-02-23T01:14:43;98530.03;;;8.22;86.35
26112;BME280;13829;48.990;8.346;2024-02-23T01:17:11;98520.56;;;8.13;86.45
26112;BME280;13829;48.990;8.346;2024-02-23T01:19:38;98537.03;;;8.23;86.58
26112;BME280;13829;48.990;8.346;2024-02-23T01:22:05;98548.63;;;8.06;85.98
26112;BME280;13829;48.990;8.346;2024-02-23T01:24:32;98560.84;;;8.06;86.80
26112;BME280;13829;48.990;8.346;2024-02-23T01:26:59;98555.59;;;8.07;88.56
26112;BME280;13829;48.990;8.346;2024-02-23T01:29:26;98561.69;;;8.06;88.38
26112;BME280;13829;48.990;8.346;2024-02-23T01:31:53;98552.09;;;8.07;87.77
26112;BME280;13829;48.990;8.346;2024-02-23T01:34:22;98554.88;;;7.96;89.25
26112;BME280;13829;48.990;8.346;2024-02-23T01:36:49;98553.13;;;7.95;88.58
26112;BME280;13829;48.990;8.346;2024-02-23T01:39:16;98567.06;;;7.95;88.70
26112;BME280;13829;48.990;8.346;2024-02-23T01:41:43;98569.63;;;8.02;87.41
26112;BME280;13829;48.990;8.346;2024-02-23T01:44:10;98573.16;;;8.00;87.56
26112;BME280;13829;48.990;8.346;2024-02-23T01:46:37;98573.22;;;7.94;86.89
26112;BME280;13829;48.990;8.346;2024-02-23T01:49:06;98582.78;;;7.97;87.53
26112;BME280;13829;48.990;8.346;2024-02-23T01:51:36;98586.19;;;8.02;86.84
26112;BME280;13829;48.990;8.346;2024-02-23T01:54:03;98594.16;;;7.94;86.17
26112;BME280;13829;48.990;8.346;2024-02-23T01:56:32;98592.44;;;7.93;86.34
26112;BME280;13829;48.990;8.346;2024-02-23T01:59:03;98600.06;;;8.09;84.12
26112;BME280;13829;48.990;8.346;2024-02-23T02:01:30;98594.78;;;8.13;83.51
26112;BME280;13829;48.990;8.346;2024-02-23T02:03:58;98594.81;;;8.09;83.65
26112;BME280;13829;48.990;8.346;2024-02-23T02:06:25;98597.59;;;7.99;83.68
26112;BME280;13829;48.990;8.346;2024-02-23T02:08:54;98595.69;;;8.11;83.73
26112;BME280;13829;48.990;8.346;2024-02-23T02:11:21;98592.34;;;7.99;83.68
26112;BME280;13829;48.990;8.346;2024-02-23T02:13:48;98595.75;;;8.05;83.44
26112;BME280;13829;48.990;8.346;2024-02-23T02:16:15;98597.38;;;8.12;82.83
26112;BME280;13829;48.990;8.346;2024-02-23T02:18:42;98614.88;;;8.10;82.57
26112;BME280;13829;48.990;8.346;2024-02-23T02:21:12;98611.41;;;8.08;83.94
26112;BME280;13829;48.990;8.346;2024-02-23T02:23:39;98610.41;;;8.18;83.40
26112;BME280;13829;48.990;8.346;2024-02-23T02:26:07;98607.00;;;8.11;84.14
26112;BME280;13829;48.990;8.346;2024-02-23T02:28:34;98608.72;;;8.14;84.73
26112;BME280;13829;48.990;8.346;2024-02-23T02:31:01;98620.97;;;8.10;85.34
26112;BME280;13829;48.990;8.346;2024-02-23T02:33:28;98607.78;;;8.18;84.62
26112;BME280;13829;48.990;8.346;2024-02-23T02:35:55;98609.50;;;8.19;84.47
26112;BME280;13829;48.990;8.346;2024-02-23T02:38:22;98618.28;;;8.16;85.01
26112;BME280;13829;48.990;8.346;2024-02-23T02:40:49;98607.06;;;8.08;84.37
26112;BME280;13829;48.990;8.346;2024-02-23T02:43:18;98613.06;;;8.15;84.08
26112;BME280;13829;48.990;8.346;2024-02-23T02:45:45;98607.75;;;8.21;85.73
26112;BME280;13829;48.990;8.346;2024-02-23T02:48:12;98613.91;;;8.15;86.29
26112;BME280;13829;48.990;8.346;2024-02-23T02:50:39;98628.81;;;8.12;85.54
26112;BME280;13829;48.990;8.346;2024-02-23T02:53:06;98621.84;;;8.12;86.20
26112;BME280;13829;48.990;8.346;2024-02-23T02:55:33;98612.41;;;8.00;86.82
26112;BME280;13829;48.990;8.346;2024-02-23T02:58:00;98618.44;;;8.04;86.06
26112;BME280;13829;48.990;8.346;2024-02-23T03:00:28;98613.97;;;8.12;85.47
26112;BME280;13829;48.990;8.346;2024-02-23T03:02:56;98619.44;;;7.95;85.92
26112;BME280;13829;48.990;8.346;2024-02-23T03:05:23;98616.75;;;8.00;84.64
26112;BME280;13829;48.990;8.346;2024-02-23T03:07:50;98628.09;;;8.02;84.86
26112;BME280;13829;48.990;8.346;2024-02-23T03:10:17;98624.47;;;8.09;81.93
26112;BME280;13829;48.990;8.346;2024-02-23T03:12:44;98635.00;;;8.06;82.57
26112;BME280;13829;48.990;8.346;2024-02-23T03:15:11;98615.00;;;8.02;79.30
26112;BME280;13829;48.990;8.346;2024-02-23T03:17:40;98615.38;;;7.73;80.84
26112;BME280;13829;48.990;8.346;2024-02-23T03:20:08;98611.91;;;7.71;80.59
26112;BME280;13829;48.990;8.346;2024-02-23T03:22:36;98606.53;;;7.80;79.82
26112;BME280;13829;48.990;8.346;2024-02-23T03:25:04;98612.59;;;7.85;77.68
26112;BME280;13829;48.990;8.346;2024-02-23T03:27:35;98618.75;;;7.81;78.55
26112;BME280;13829;48.990;8.346;2024-02-23T03:30:04;98612.66;;;7.80;77.88
26112;BME280;13829;48.990;8.346;2024-02-23T03:32:34;98614.53;;;7.69;79.25
26112;BME280;13829;48.990;8.346;2024-02-23T03:35:06;98618.72;;;7.82;78.36
26112;BME280;13829;48.990;8.346;2024-02-23T03:37:33;98614.41;;;7.80;79.48
26112;BME280;13829;48.990;8.346;2024-02-23T03:40:00;98621.22;;;7.93;79.97
26112;BME280;13829;48.990;8.346;2024-02-23T03:42:28;98629.06;;;7.93;79.24
26112;BME280;13829;48.990;8.346;2024-02-23T03:44:55;98629.09;;;7.92;79.00
26112;BME280;13829;48.990;8.346;2024-02-23T03:47:22;98627.44;;;7.84;78.83
26112;BME280;13829;48.990;8.346;2024-02-23T03:49:49;98634.53;;;7.75;80.60
26112;BME280;13829;48.990;8.346;2024-02-23T03:52:17;98633.53;;;7.85;80.60
26112;BME280;13829;48.990;8.346;2024-02-23T03:54:44;98634.56;;;7.72;80.38
26112;BME280;13829;48.990;8.346;2024-02-23T03:57:11;98636.84;;;7.98;80.42
26112;BME280;13829;48.990;8.346;2024-02-23T03:59:38;98635.13;;;7.97;80.41
26112;BME280;13829;48.990;8.346;2024-02-23T04:02:07;98639.28;;;8.12;80.26
26112;BME280;13829;48.990;8.346;2024-02-23T04:04:34;98649.84;;;8.06;80.18
26112;BME280;13829;48.990;8.346;2024-02-23T04:07:01;98647.06;;;8.20;80.52
26112;BME280;13829;48.990;8.346;2024-02-23T04:09:29;98657.63;;;8.10;80.39
26112;BME280;13829;48.990;8.346;2024-02-23T04:11:57;98654.81;;;8.27;79.55
26112;BME280;13829;48.990;8.346;2024-02-23T04:14:24;98664.53;;;8.18;80.18
26112;BME280;13829;48.990;8.346;2024-02-23T04:16:51;98667.13;;;8.19;81.10
26112;BME280;13829;48.990;8.346;2024-02-23T04:19:18;98658.44;;;8.17;78.94
26112;BME280;13829;48.990;8.346;2024-02-23T04:21:45;98662.03;;;8.08;79.73
26112;BME280;13829;48.990;8.346;2024-02-23T04:24:12;98653.03;;;8.28;79.94
26112;BME280;13829;48.990;8.346;2024-02-23T04:26:41;98653.91;;;8.27;79.85
26112;BME280;13829;48.990;8.346;2024-02-23T04:29:08;98660.31;;;8.06;79.54
26112;BME280;13829;48.990;8.346;2024-02-23T04:31:37;98660.94;;;8.23;80.39
26112;BME280;13829;48.990;8.346;2024-02-23T04:34:04;98651.56;;;8.08;79.79
26112;BME280;13829;48.990;8.346;2024-02-23T04:36:31;98642.25;;;7.86;79.96
26112;BME280;13829;48.990;8.346;2024-02-23T04:38:58;98637.94;;;7.80;80.03
26112;BME280;13829;48.990;8.346;2024-02-23T04:41:25;98639.50;;;7.96;77.62
26112;BME280;13829;48.990;8.346;2024-02-23T04:43:53;98635.13;;;7.95;77.81
26112;BME280;13829;48.990;8.346;2024-02-23T04:46:25;98636.34;;;7.68;76.52
26112;BME280;13829;48.990;8.346;2024-02-23T04:48:52;98638.03;;;7.72;77.00
26112;BME280;13829;48.990;8.346;2024-02-23T04:51:19;98637.03;;;7.86;76.41
26112;BME280;13829;48.990;8.346;2024-02-23T04:53:48;98644.72;;;7.96;75.30
26112;BME280;13829;48.990;8.346;2024-02-23T04:56:15;98630.69;;;8.02;74.74
26112;BME280;13829;48.990;8.346;2024-02-23T04:58:43;98635.16;;;7.94;76.65
26112;BME280;13829;48.990;8.346;2024-02-23T05:01:12;98629.22;;;7.81;77.47
26112;BME280;13829;48.990;8.346;2024-02-23T05:03:39;98628.22;;;7.91;78.01
26112;BME280;13829;48.990;8.346;2024-02-23T05:06:06;98634.31;;;7.90;76.21
26112;BME280;13829;48.990;8.346;2024-02-23T05:08:33;98639.69;;;7.81;75.56
26112;BME280;13829;48.990;8.346;2024-02-23T05:11:00;98640.63;;;7.74;77.17
26112;BME280;13829;48.990;8.346;2024-02-23T05:13:28;98638.72;;;7.88;77.55
26112;BME280;13829;48.990;8.346;2024-02-23T05:15:55;98630.91;;;7.85;76.40
26112;BME280;13829;48.990;8.346;2024-02-23T05:18:24;98624.88;;;7.78;76.71
26112;BME280;13829;48.990;8.346;2024-02-23T05:20:52;98629.94;;;7.92;75.22
26112;BME280;13829;48.990;8.346;2024-02-23T05:23:19;98631.75;;;7.87;75.65
26112;BME280;13829;48.990;8.346;2024-02-23T05:25:46;98626.56;;;7.84;75.04
26112;BME280;13829;48.990;8.346;2024-02-23T05:28:13;98635.25;;;7.89;76.73
26112;BME280;13829;48.990;8.346;2024-02-23T05:30:40;98632.06;;;7.64;77.74
26112;BME280;13829;48.990;8.346;2024-02-23T05:33:07;98639.56;;;7.90;75.76
26112;BME280;13829;48.990;8.346;2024-02-23T05:35:36;98633.59;;;7.80;75.50
26112;BME280;13829;48.990;8.346;2024-02-23T05:38:03;98646.72;;;7.76;75.30
26112;BME280;13829;48.990;8.346;2024-02-23T05:40:32;98653.94;;;7.55;75.99
26112;BME280;13829;48.990;8.346;2024-02-23T05:42:59;98653.84;;;7.64;75.00
26112;BME280;13829;48.990;8.346;2024-02-23T05:45:26;98652.22;;;7.54;73.92
26112;BME280;13829;48.990;8.346;2024-02-23T05:47:53;98657.50;;;7.48;73.26
26112;BME280;13829;48.990;8.346;2024-02-23T05:50:20;98658.41;;;7.45;74.27
26112;BME280;13829;48.990;8.346;2024-02-23T05:52:48;98648.84;;;7.40;73.70
26112;BME280;13829;48.990;8.346;2024-02-23T05:55:16;98654.22;;;7.26;75.22
26112;BME280;13829;48.990;8.346;2024-02-23T05:57:43;98650.75;;;7.25;75.01
26112;BME280;13829;48.990;8.346;2024-02-23T06:00:11;98639.56;;;7.09;75.29
26112;BME280;13829;48.990;8.346;2024-02-23T06:02:38;98648.34;;;7.04;74.22
26112;BME280;13829;48.990;8.346;2024-02-23T06:05:07;98656.19;;;7.04;76.55
26112;BME280;13829;48.990;8.346;2024-02-23T06:07:34;98651.84;;;7.06;76.47
26112;BME280;13829;48.990;8.346;2024-02-23T06:10:04;98649.28;;;6.96;76.43
26112;BME280;13829;48.990;8.346;2024-02-23T06:12:31;98651.00;;;7.00;77.08
26112;BME280;13829;48.990;8.346;2024-02-23T06:14:58;98655.41;;;6.92;78.76
26112;BME280;13829;48.990;8.346;2024-02-23T06:17:25;98665.16;;;6.72;78.63
26112;BME280;13829;48.990;8.346;2024-02-23T06:19:53;98661.69;;;6.73;78.02
26112;BME280;13829;48.990;8.346;2024-02-23T06:22:23;98657.22;;;6.84;78.67
26112;BME280;13829;48.990;8.346;2024-02-23T06:24:51;98663.28;;;6.89;79.14
26112;BME280;13829;48.990;8.346;2024-02-23T06:27:19;98655.34;;;7.03;78.90
26112;BME280;13829;48.990;8.346;2024-02-23T06:29:48;98660.69;;;6.89;79.28
26112;BME280;13829;48.990;8.346;2024-02-23T06:32:15;98663.22;;;6.95;79.07
26112;BME280;13829;48.990;8.346;2024-02-23T06:34:42;98664.09;;;6.97;78.91
26112;BME280;13829;48.990;8.346;2024-02-23T06:37:09;98663.13;;;7.08;79.49
26112;BME280;13829;48.990;8.346;2024-02-23T06:39:36;98672.69;;;7.10;80.25
26112;BME280;13829;48.990;8.346;2024-02-23T06:42:04;98663.22;;;6.98;82.13
26112;BME280;13829;48.990;8.346;2024-02-23T06:44:32;98660.56;;;7.01;82.02
26112;BME280;13829;48.990;8.346;2024-02-23T06:46:59;98663.97;;;7.10;83.62
26112;BME280;13829;48.990;8.346;2024-02-23T06:49:26;98661.47;;;6.97;83.80
26112;BME280;13829;48.990;8.346;2024-02-23T06:51:53;98656.22;;;7.00;85.42
26112;BME280;13829;48.990;8.346;2024-02-23T06:54:20;98658.06;;;6.86;85.73
26112;BME280;13829;48.990;8.346;2024-02-23T06:56:47;98656.28;;;6.94;86.12
26112;BME280;13829;48.990;8.346;2024-02-23T06:59:14;98662.44;;;6.87;85.52
26112;BME280;13829;48.990;8.346;2024-02-23T07:01:49;98666.03;;;6.75;86.00
26112;BME280;13829;48.990;8.346;2024-02-23T07:04:17;98657.25;;;6.81;85.95
26112;BME280;13829;48.990;8.346;2024-02-23T07:06:44;98665.91;;;6.89;85.61
26112;BME280;13829;48.990;8.346;2024-02-23T07:09:12;98661.66;;;6.76;84.23
26112;BME280;13829;48.990;8.346;2024-02-23T07:11:39;98663.38;;;6.77;84.57
26112;BME280;13829;48.990;8.346;2024-02-23T07:14:09;98663.31;;;6.86;84.62
26112;BME280;13829;48.990;8.346;2024-02-23T07:16:38;98668.56;;;6.80;84.29
26112;BME280;13829;48.990;8.346;2024-02-23T07:19:07;98662.38;;;6.95;83.63
26112;BME280;13829;48.990;8.346;2024-02-23T07:21:35;98673.72;;;6.92;82.67
26112;BME280;13829;48.990;8.346;2024-02-23T07:24:02;98666.53;;;7.16;82.28
26112;BME280;13829;48.990;8.346;2024-02-23T07:26:29;98670.88;;;7.15;81.98
26112;BME280;13829;48.990;8.346;2024-02-23T07:28:56;98668.31;;;7.12;82.32
26112;BME280;13829;48.990;8.346;2024-02-23T07:31:23;98668.34;;;7.11;82.94
26112;BME280;13829;48.990;8.346;2024-02-23T07:33:50;98671.81;;;7.11;83.09
26112;BME280;13829;48.990;8.346;2024-02-23T07:36:19;98685.47;;;7.40;79.73
26112;BME280;13829;48.990;8.346;2024-02-23T07:38:47;98678.19;;;7.70;80.12
26112;BME280;13829;48.990;8.346;2024-02-23T07:41:15;98677.91;;;8.63;76.96
26112;BME280;13829;48.990;8.346;2024-02-23T07:43:43;98683.38;;;10.01;68.39
26112;BME280;13829;48.990;8.346;2024-02-23T07:46:12;98678.81;;;11.23;62.44
26112;BME280;13829;48.990;8.346;2024-02-23T07:48:39;98682.03;;;12.61;57.69
26112;BME280;13829;48.990;8.346;2024-02-23T07:51:06;98682.78;;;13.72;53.53
26112;BME280;13829;48.990;8.346;2024-02-23T07:53:35;98677.66;;;14.16;50.54
26112;BME280;13829;48.990;8.346;2024-02-23T07:56:02;98670.34;;;14.46;49.59
26112;BME280;13829;48.990;8.346;2024-02-23T07:58:30;98678.28;;;14.92;48.94
26112;BME280;13829;48.990;8.346;2024-02-23T08:00:57;98665.47;;;14.81;48.30
26112;BME280;13829;48.990;8.346;2024-02-23T08:03:24;98670.34;;;14.92;46.96
26112;BME280;13829;48.990;8.346;2024-02-23T08:05:51;98663.47;;;14.66;47.75
26112;BME280;13829;48.990;8.346;2024-02-23T08:08:18;98670.09;;;14.52;48.61
26112;BME280;13829;48.990;8.346;2024-02-23T08:10:49;98670.78;;;13.63;49.29
26112;BME280;13829;48.990;8.346;2024-02-23T08:13:16;98683.78;;;12.62;51.81
26112;BME280;13829;48.990;8.346;2024-02-23T08:15:44;98680.72;;;12.74;52.95
26112;BME280;13829;48.990;8.346;2024-02-23T08:18:11;98679.81;;;12.75;52.92
26112;BME280;13829;48.990;8.346;2024-02-23T08:20:38;98684.66;;;12.32;54.50
26112;BME280;13829;48.990;8.346;2024-02-23T08:23:06;98685.22;;;12.12;54.95
26112;BME280;13829;48.990;8.346;2024-02-23T08:25:32;98680.22;;;12.03;56.71
26112;BME280;13829;48.990;8.346;2024-02-23T08:28:00;98674.84;;;11.74;55.16
26112;BME280;13829;48.990;8.346;2024-02-23T08:30:27;98671.97;;;11.51;57.27
26112;BME280;13829;48.990;8.346;2024-02-23T08:32:54;98666.44;;;11.60;58.37
26112;BME280;13829;48.990;8.346;2024-02-23T08:35:21;98674.81;;;11.43;56.94
26112;BME280;13829;48.990;8.346;2024-02-23T08:37:48;98673.88;;;11.11;56.06
26112;BME280;13829;48.990;8.346;2024-02-23T08:40:16;98663.56;;;11.03;59.55
26112;BME280;13829;48.990;8.346;2024-02-23T08:42:43;98668.97;;;10.96;57.18
26112;BME280;13829;48.990;8.346;2024-02-23T08:45:11;98665.84;;;10.81;58.77
26112;BME280;13829;48.990;8.346;2024-02-23T08:47:39;98674.19;;;10.61;58.17
26112;BME280;13829;48.990;8.346;2024-02-23T08:50:07;98671.81;;;10.50;60.35
26112;BME280;13829;48.990;8.346;2024-02-23T08:52:34;98658.19;;;10.70;60.40
26112;BME280;13829;48.990;8.346;2024-02-23T08:55:02;98657.34;;;10.70;58.22
26112;BME280;13829;48.990;8.346;2024-02-23T08:57:29;98660.72;;;10.75;61.48
26112;BME280;13829;48.990;8.346;2024-02-23T08:59:56;98656.16;;;10.82;59.27
26112;BME280;13829;48.990;8.346;2024-02-23T09:02:25;98665.47;;;10.97;58.77
26112;BME280;13829;48.990;8.346;2024-02-23T09:04:52;98661.94;;;10.98;57.02
26112;BME280;13829;48.990;8.346;2024-02-23T09:07:19;98649.63;;;11.00;56.29
26112;BME280;13829;48.990;8.346;2024-02-23T09:09:46;98651.59;;;10.90;56.36
26112;BME280;13829;48.990;8.346;2024-02-23T09:12:14;98658.47;;;10.96;57.24
26112;BME280;13829;48.990;8.346;2024-02-23T09:14:42;98648.59;;;11.05;57.54
26112;BME280;13829;48.990;8.346;2024-02-23T09:17:09;98652.00;;;11.09;59.21
26112;BME280;13829;48.990;8.346;2024-02-23T09:19:38;98655.59;;;11.06;56.77
26112;BME280;13829;48.990;8.346;2024-02-23T09:22:05;98657.06;;;11.17;56.83
26112;BME280;13829;48.990;8.346;2024-02-23T09:24:32;98655.19;;;11.22;56.43
26112;BME280;13829;48.990;8.346;2024-02-23T09:27:00;98658.75;;;11.19;57.29
26112;BME280;13829;48.990;8.346;2024-02-23T09:29:28;98658.16;;;11.08;57.03
26112;BME280;13829;48.990;8.346;2024-02-23T09:31:55;98654.31;;;10.87;57.91
26112;BME280;13829;48.990;8.346;2024-02-23T09:34:22;98655.41;;;10.78;57.12
26112;BME280;13829;48.990;8.346;2024-02-23T09:36:50;98657.28;;;10.73;57.89
26112;BME280;13829;48.990;8.346;2024-02-23T09:39:17;98653.97;;;10.65;58.15
26112;BME280;13829;48.990;8.346;2024-02-23T09:41:50;98641.56;;;10.70;58.20
26112;BME280;13829;48.990;8.346;2024-02-23T09:44:18;98658.69;;;10.49;57.04
26112;BME280;13829;48.990;8.346;2024-02-23T09:46:48;98654.31;;;10.49;57.93
26112;BME280;13829;48.990;8.346;2024-02-23T09:49:16;98644.63;;;10.51;58.51
26112;BME280;13829;48.990;8.346;2024-02-23T09:51:43;98642.53;;;10.26;59.84
26112;BME280;13829;48.990;8.346;2024-02-23T09:54:11;98638.88;;;10.32;60.60
26112;BME280;13829;48.990;8.346;2024-02-23T09:56:39;98645.81;;;10.38;60.63
26112;BME280;13829;48.990;8.346;2024-02-23T09:59:07;98643.16;;;10.39;61.04
26112;BME280;13829;48.990;8.346;2024-02-23T10:01:34;98640.63;;;10.33;61.35
26112;BME280;13829;48.990;8.346;2024-02-23T10:04:03;98629.31;;;10.31;59.87
26112;BME280;13829;48.990;8.346;2024-02-23T10:06:30;98637.28;;;10.26;60.37
26112;BME280;13829;48.990;8.346;2024-02-23T10:08:57;98638.88;;;10.34;59.40
26112;BME280;13829;48.990;8.346;2024-02-23T10:11:26;98637.41;;;10.20;61.05
26112;BME280;13829;48.990;8.346;2024-02-23T10:13:53;98627.16;;;10.08;62.39
26112;BME280;13829;48.990;8.346;2024-02-23T10:16:21;98637.78;;;10.02;60.82
26112;BME280;13829;48.990;8.346;2024-02-23T10:18:49;98630.97;;;9.93;60.61
26112;BME280;13829;48.990;8.346;2024-02-23T10:21:16;98637.16;;;9.92;60.52
26112;BME280;13829;48.990;8.346;2024-02-23T10:23:45;98644.84;;;10.00;60.48
26112;BME280;13829;48.990;8.346;2024-02-23T10:26:12;98635.94;;;10.07;61.57
26112;BME280;13829;48.990;8.346;2024-02-23T10:28:40;98634.78;;;10.20;59.04
26112;BME280;13829;48.990;8.346;2024-02-23T10:31:07;98636.91;;;10.03;59.57
26112;BME280;13829;48.990;8.346;2024-02-23T10:33:35;98636.22;;;9.94;59.76
26112;BME280;13829;48.990;8.346;2024-02-23T10:36:05;98628.00;;;10.10;61.57
26112;BME280;13829;48.990;8.346;2024-02-23T10:38:37;98632.69;;;10.38;60.86
26112;BME280;13829;48.990;8.346;2024-02-23T10:41:05;98642.28;;;10.39;61.38
26112;BME280;13829;48.990;8.346;2024-02-23T10:43:47;98644.59;;;10.53;60.18
26112;BME280;13829;48.990;8.346;2024-02-23T10:46:15;98652.63;;;10.47;59.17
26112;BME280;13829;48.990;8.346;2024-02-23T10:48:44;98643.94;;;10.43;59.16
26112;BME280;13829;48.990;8.346;2024-02-23T10:51:14;98649.50;;;10.27;59.73
26112;BME280;13829;48.990;8.346;2024-02-23T10:53:43;98649.25;;;10.40;59.79
26112;BME280;13829;48.990;8.346;2024-02-23T10:56:12;98644.97;;;10.36;59.02
26112;BME280;13829;48.990;8.346;2024-02-23T10:58:39;98658.91;;;10.39;60.20
26112;BME280;13829;48.990;8.346;2024-02-23T11:01:09;98646.94;;;10.24;59.57
26112;BME280;13829;48.990;8.346;2024-02-23T11:03:38;98653.09;;;10.23;60.71
26112;BME280;13829;48.990;8.346;2024-02-23T11:06:08;98652.91;;;10.33;60.38
26112;BME280;13829;48.990;8.346;2024-02-23T11:08:36;98650.50;;;10.22;61.30
26112;BME280;13829;48.990;8.346;2024-02-23T11:11:08;98657.66;;;10.15;61.48
26112;BME280;13829;48.990;8.346;2024-02-23T11:13:35;98641.84;;;10.17;62.65
26112;BME280;13829;48.990;8.346;2024-02-23T11:16:03;98640.75;;;10.28;63.61
26112;BME280;13829;48.990;8.346;2024-02-23T11:18:34;98646.31;;;10.54;61.61
26112;BME280;13829;48.990;8.346;2024-02-23T11:21:04;98641.53;;;10.71;58.93
26112;BME280;13829;48.990;8.346;2024-02-23T11:23:41;98638.31;;;10.58;60.31
26112;BME280;13829;48.990;8.346;2024-02-23T11:26:10;98629.88;;;10.83;62.64
26112;BME280;13829;48.990;8.346;2024-02-23T11:28:47;98638.66;;;10.82;61.60
26112;BME280;13829;48.990;8.346;2024-02-23T11:31:15;98639.88;;;11.03;62.57
26112;BME280;13829;48.990;8.346;2024-02-23T11:33:52;98636.47;;;10.98;61.12
26112;BME280;13829;48.990;8.346;2024-02-23T11:36:24;98626.16;;;10.92;59.58
26112;BME280;13829;48.990;8.346;2024-02-23T11:38:56;98621.34;;;11.08;60.47
26112;BME280;13829;48.990;8.346;2024-02-23T11:41:24;98626.13;;;11.26;58.89
26112;BME280;13829;48.990;8.346;2024-02-23T11:43:53;98631.38;;;11.26;59.35
26112;BME280;13829;48.990;8.346;2024-02-23T11:46:21;98626.78;;;11.35;57.44
26112;BME280;13829;48.990;8.346;2024-02-23T11:48:50;98632.44;;;11.52;58.87
26112;BME280;13829;48.990;8.346;2024-02-23T11:51:20;98627.97;;;11.56;57.08
26112;BME280;13829;48.990;8.346;2024-02-23T11:53:47;98622.47;;;11.64;57.03
26112;BME280;13829;48.990;8.346;2024-02-23T11:56:15;98624.78;;;11.76;57.28
26112;BME280;13829;48.990;8.346;2024-02-23T11:58:43;98615.03;;;11.80;58.44
26112;BME280;13829;48.990;8.346;2024-02-23T12:01:10;98619.97;;;11.90;56.17
26112;BME280;13829;48.990;8.346;2024-02-23T12:03:37;98614.53;;;11.97;56.02
26112;BME280;13829;48.990;8.346;2024-02-23T12:06:07;98615.19;;;12.05;55.56
26112;BME280;13829;48.990;8.346;2024-02-23T12:08:35;98615.91;;;12.10;56.41
26112;BME280;13829;48.990;8.346;2024-02-23T12:11:05;98616.22;;;11.99;57.21
26112;BME280;13829;48.990;8.346;2024-02-23T12:13:34;98612.03;;;11.92;57.29
26112;BME280;13829;48.990;8.346;2024-02-23T12:16:03;98605.63;;;12.02;58.63
26112;BME280;13829;48.990;8.346;2024-02-23T12:18:32;98607.91;;;12.13;58.33
26112;BME280;13829;48.990;8.346;2024-02-23T12:21:00;98599.50;;;12.30;58.03
26112;BME280;13829;48.990;8.346;2024-02-23T12:23:39;98605.50;;;12.35;55.74
26112;BME280;13829;48.990;8.346;2024-02-23T12:26:08;98601.25;;;12.30;53.02
26112;BME280;13829;48.990;8.346;2024-02-23T12:28:36;98601.00;;;12.09;57.45
26112;BME280;13829;48.990;8.346;2024-02-23T12:31:04;98604.72;;;12.03;56.64
26112;BME280;13829;48.990;8.346;2024-02-23T12:33:33;98599.28;;;11.77;59.18
26112;BME280;13829;48.990;8.346;2024-02-23T12:36:03;98598.16;;;11.85;56.84
26112;BME280;13829;48.990;8.346;2024-02-23T12:38:32;98602.25;;;11.66;55.78
26112;BME280;13829;48.990;8.346;2024-02-23T12:41:00;98606.47;;;11.71;54.93
26112;BME280;13829;48.990;8.346;2024-02-23T12:43:28;98601.53;;;11.61;56.91
26112;BME280;13829;48.990;8.346;2024-02-23T12:45:57;98601.97;;;11.75;56.59
26112;BME280;13829;48.990;8.346;2024-02-23T12:48:24;98604.22;;;11.89;56.81
26112;BME280;13829;48.990;8.346;2024-02-23T12:50:52;98613.56;;;11.69;56.09
26112;BME280;13829;48.990;8.346;2024-02-23T12:53:33;98599.50;;;11.69;56.42
26112;BME280;13829;48.990;8.346;2024-02-23T12:56:02;98613.63;;;11.66;56.36
26112;BME280;13829;48.990;8.346;2024-02-23T12:58:30;98608.88;;;11.79;56.28
26112;BME280;13829;48.990;8.346;2024-02-23T13:00:57;98612.44;;;11.78;55.86
26112;BME280;13829;48.990;8.346;2024-02-23T13:03:25;98609.25;;;11.65;56.78
26112;BME280;13829;48.990;8.346;2024-02-23T13:05:53;98604.59;;;11.75;56.30
26112;BME280;13829;48.990;8.346;2024-02-23T13:08:21;98599.63;;;11.66;56.54
26112;BME280;13829;48.990;8.346;2024-02-23T13:10:49;98592.97;;;11.52;58.06